Time;durP1;ratioP1;P1;durP2;ratioP2;P2;SDS_P1;SDS_P2;PMS_P1;PMS_P2;Temp;Humidity;BMP_temperature;BMP_pressure;BME280_temperature;BME280_humidity;BME280_pressure;Samples;Min_cycle;Max_cycle;Signal;HPM_P1;HPM_P2
2021/05/06 00:09:05;;;;;;;17.55;15.75;;;7.80;99.90;;;8.08;80.00;100708.06;5053216;28;20048;-74
2021/05/06 00:14:43;;;;;;;18.15;15.35;;;8.00;99.90;;;8.02;79.19;100712.44;5073870;28;20098;-76
2021/05/06 00:33:40;;;;;;;17.05;15.10;;;7.90;99.90;;;8.07;78.04;100698.38;5073575;28;20106;-75
2021/05/06 00:36:08;;;;;;;17.95;15.85;;;8.00;99.90;;;8.06;77.62;100701.91;5073711;28;20076;-75
2021/05/06 00:38:41;;;;;;;19.30;17.35;;;8.00;99.90;;;8.12;77.73;100695.78;5073648;28;20063;-75
2021/05/06 00:41:20;;;;;;;19.88;16.98;;;8.00;99.90;;;8.25;77.91;100702.88;5072271;28;20066;-75
2021/05/06 00:44:14;;;;;;;19.58;17.42;;;8.10;99.90;;;8.39;77.06;100703.78;5073557;28;20047;-75
2021/05/06 00:55:02;;;;;;;23.17;18.55;;;8.50;99.90;;;8.93;75.00;100687.09;5072106;28;20087;-75
2021/05/06 00:57:36;;;;;;;20.58;18.30;;;8.70;99.90;;;9.03;74.82;100689.75;5071994;28;20049;-75
2021/05/06 01:00:32;;;;;;;20.60;17.92;;;8.80;99.90;;;9.09;73.98;100687.09;5089177;28;20052;-75
2021/05/06 01:03:08;;;;;;;20.50;17.77;;;8.90;99.90;;;9.15;74.03;100685.31;5071872;28;20048;-75
2021/05/06 01:05:39;;;;;;;24.10;18.05;;;8.90;99.90;;;9.25;73.55;100680.03;5073207;28;20545;-75
2021/05/06 01:08:12;;;;;;;18.05;16.15;;;9.00;99.90;;;9.35;73.26;100684.38;5071810;28;20040;-75
2021/05/06 01:10:53;;;;;;;18.95;16.30;;;9.10;99.90;;;9.42;72.62;100682.63;5105841;28;20052;-75
2021/05/06 01:13:23;;;;;;;17.35;15.25;;;9.20;99.90;;;9.45;72.40;100670.28;5071916;28;20139;-75
2021/05/06 01:15:52;;;;;;;17.70;15.88;;;9.20;99.90;;;9.47;71.76;100676.44;5071804;28;20075;-75
2021/05/06 01:18:20;;;;;;;18.77;16.58;;;9.30;99.90;;;9.41;72.08;100665.88;5071727;28;20409;-75
2021/05/06 01:20:53;;;;;;;18.13;16.00;;;9.20;99.90;;;9.37;71.98;100664.13;5105438;28;20409;-75
2021/05/06 01:23:23;;;;;;;18.13;16.27;;;9.20;99.90;;;9.46;71.97;100673.81;5088572;28;20090;-75
2021/05/06 01:25:54;;;;;;;17.42;15.45;;;9.20;99.90;;;9.46;71.61;100669.41;5088471;28;20074;-75
2021/05/06 01:28:25;;;;;;;18.67;15.98;;;9.20;99.90;;;9.51;71.02;100664.97;5071340;28;20115;-75
2021/05/06 01:30:59;;;;;;;17.67;15.95;;;9.30;99.90;;;9.46;71.60;100664.13;5088489;28;20049;-75
2021/05/06 01:33:33;;;;;;;18.67;16.67;;;9.30;99.90;;;9.39;71.28;100656.25;5071730;28;20040;-75
2021/05/06 01:36:04;;;;;;;19.02;17.02;;;9.20;99.90;;;9.37;71.59;100658.00;5072863;28;20053;-75
2021/05/06 01:38:53;;;;;;;21.05;17.50;;;9.20;99.90;;;9.36;71.55;100648.31;5071590;28;20486;-75
2021/05/06 01:44:09;;;;;;;19.77;17.63;;;9.10;99.90;;;9.43;71.34;100652.69;5072897;28;20036;-75
2021/05/06 01:47:03;;;;;;;20.63;17.92;;;9.10;99.90;;;9.41;71.22;100639.50;5088399;28;20041;-75
2021/05/06 01:50:02;;;;;;;19.42;17.48;;;9.10;99.90;;;9.44;71.32;100651.81;5088234;28;20052;-75
2021/05/06 01:58:13;;;;;;;21.77;19.58;;;9.00;99.90;;;9.19;72.10;100651.03;5071476;28;20056;-75
2021/05/06 02:00:44;;;;;;;21.27;18.85;;;8.90;99.90;;;9.22;72.45;100644.84;5072556;28;20489;-75
2021/05/06 02:03:19;;;;;;;21.50;19.30;;;8.90;99.90;;;9.18;72.16;100653.63;5072616;28;20444;-75
2021/05/06 02:05:51;;;;;;;22.05;19.60;;;8.90;99.90;;;9.14;72.39;100646.63;5071317;28;20049;-75
2021/05/06 02:08:20;;;;;;;21.50;19.23;;;8.90;99.90;;;9.15;71.96;100646.63;5105163;28;20102;-75
2021/05/06 02:10:55;;;;;;;21.00;18.85;;;8.80;99.90;;;9.08;72.36;100647.50;5071115;28;20037;-75
2021/05/06 02:13:41;;;;;;;21.67;19.33;;;8.80;99.90;;;9.01;72.58;100646.66;5072708;28;20060;-75
2021/05/06 02:16:17;;;;;;;24.65;19.20;;;8.70;99.90;;;8.99;72.43;100650.16;5071070;28;20131;-75
2021/05/06 02:18:46;;;;;;;21.73;19.48;;;8.70;99.90;;;9.00;72.19;100644.03;5072369;28;20486;-75
2021/05/06 02:21:17;;;;;;;20.95;18.48;;;8.70;99.90;;;8.85;71.46;100644.91;5072199;28;20049;-75
2021/05/06 02:23:51;;;;;;;21.48;19.23;;;8.70;99.90;;;8.79;71.76;100633.47;5072447;28;20135;-75
2021/05/06 02:26:19;;;;;;;20.50;18.38;;;8.60;99.90;;;8.86;71.44;100646.69;5071081;28;20049;-75
2021/05/06 02:28:46;;;;;;;19.83;17.83;;;8.60;99.90;;;8.84;71.40;100644.91;5072208;28;20040;-75
2021/05/06 02:31:14;;;;;;;21.85;17.70;;;8.50;99.90;;;8.19;71.69;100528.94;5072287;28;20037;-75
2021/05/06 02:33:42;;;;;;;20.13;17.38;;;8.50;99.90;;;8.81;71.28;100637.00;5072101;28;20459;-75
2021/05/06 02:36:10;;;;;;;20.27;18.27;;;8.50;99.90;;;8.83;71.76;100635.22;5072323;28;20102;-75
2021/05/06 02:38:37;;;;;;;20.75;18.70;;;8.60;99.90;;;8.80;71.92;100629.97;5071049;28;20135;-75
2021/05/06 02:41:06;;;;;;;19.48;17.35;;;8.50;99.90;;;8.82;71.06;100630.84;5073467;28;20052;-75
2021/05/06 02:43:33;;;;;;;21.00;18.75;;;8.60;99.90;;;8.68;71.44;100614.16;5075946;28;20060;-75
2021/05/06 02:46:01;;;;;;;21.00;18.00;;;8.60;99.90;;;8.75;71.10;100637.03;5075809;28;20053;-75
2021/05/06 02:48:28;;;;;;;21.65;18.63;;;8.60;99.90;;;8.78;71.70;100635.25;5075717;28;20052;-75
2021/05/06 02:50:58;;;;;;;22.05;19.85;;;8.60;99.90;;;8.77;71.48;100635.22;5075845;28;20052;-75
2021/05/06 02:53:29;;;;;;;22.55;19.30;;;8.60;99.90;;;8.70;71.72;100630.88;5074486;28;20045;-75
2021/05/06 02:56:03;;;;;;;21.55;19.25;;;8.50;99.90;;;8.59;72.14;100624.72;5075497;28;20068;-75
2021/05/06 03:04:07;;;;;;;22.02;19.80;;;8.60;99.90;;;8.17;72.70;100605.34;5075609;28;20063;-73
2021/05/06 03:06:42;;;;;;;20.98;18.52;;;8.00;99.90;;;8.04;73.70;100595.69;5075521;28;20058;-73
2021/05/06 03:09:21;;;;;;;22.05;18.52;;;7.80;99.90;;;8.01;74.11;100593.03;5075327;28;20413;-73
2021/05/06 03:11:55;;;;;;;21.23;18.95;;;7.80;99.90;;;8.01;74.33;100603.56;5075506;28;20040;-73
2021/05/06 03:14:45;;;;;;;21.45;19.25;;;7.80;99.90;;;7.95;74.67;100600.94;5075400;28;20079;-73
2021/05/06 03:22:43;;;;;;;20.50;18.33;;;7.80;99.90;;;7.82;76.30;100593.03;5031197;28;20428;-74
2021/05/06 03:25:13;;;;;;;20.08;17.98;;;7.70;99.90;;;7.71;76.78;100594.72;5075126;28;20044;-73
2021/05/06 03:27:46;;;;;;;17.88;16.08;;;7.60;99.90;;;7.75;76.93;100605.28;5075119;28;20105;-73
2021/05/06 03:30:55;;;;;;;17.90;15.27;;;7.60;99.90;;;7.80;76.94;100603.53;5075224;28;20459;-74
2021/05/06 03:41:43;;;;;;;18.02;16.10;;;8.00;99.90;;;8.15;76.58;100596.56;5075015;28;20048;-74
2021/05/06 04:03:46;;;;;;;14.98;13.57;;;8.30;99.90;;;8.61;74.15;100559.69;5073070;28;20048;-74
2021/05/06 04:17:25;;;;;;;13.20;11.90;;;8.30;99.90;;;8.46;72.95;100578.19;5060449;28;20563;-84
2021/05/06 04:25:44;;;;;;;13.35;10.95;;;8.20;99.90;;;8.21;73.07;100543.88;5074106;28;20072;-86
2021/05/06 04:35:28;;;;;;;11.07;10.05;;;8.20;99.90;;;8.22;72.80;100560.56;4992590;28;20054;-86
2021/05/06 04:36:57;;;;;;;9.95;8.75;;;8.10;99.90;;;8.28;72.32;100571.16;5073670;28;20056;-85
2021/05/06 04:39:32;;;;;;;9.88;8.98;;;8.10;99.90;;;8.26;72.56;100562.38;5074020;28;20059;-85
2021/05/06 04:50:28;;;;;;;10.48;9.48;;;8.20;99.90;;;8.37;72.80;100562.34;5039818;28;20036;-85
2021/05/06 04:55:45;;;;;;;10.05;9.00;;;8.20;99.90;;;8.43;72.74;100555.31;5073362;28;20060;-85
2021/05/06 05:03:53;;;;;;;10.38;8.52;;;8.30;99.90;;;8.78;71.86;100550.00;5034039;28;20061;-85
2021/05/06 05:06:23;;;;;;;9.00;8.13;;;8.50;99.90;;;8.92;71.70;100558.75;5073169;28;20051;-85
2021/05/06 05:09:05;;;;;;;10.13;9.13;;;8.60;99.90;;;9.04;71.52;100566.59;5073195;28;20036;-86
2021/05/06 05:11:41;;;;;;;10.02;9.00;;;8.70;99.90;;;8.65;71.45;100485.84;5073221;28;20057;-86
2021/05/06 05:25:17;;;;;;;9.65;8.40;;;9.00;99.90;;;9.27;71.07;100564.75;5073538;28;20098;-86
2021/05/06 05:27:49;;;;;;;10.15;8.98;;;9.00;99.90;;;9.42;71.24;100571.75;5073033;28;20113;-85
2021/05/06 05:30:18;;;;;;;9.52;8.63;;;9.20;99.90;;;9.27;71.26;100550.72;5072990;28;20040;-84
2021/05/06 05:33:06;;;;;;;10.40;8.95;;;9.10;99.90;;;9.35;71.35;100570.03;5073034;28;20059;-85
2021/05/06 05:35:38;;;;;;;11.05;8.95;;;9.10;99.90;;;9.36;71.16;100563.84;5073266;28;20049;-84
2021/05/06 05:38:13;;;;;;;9.13;8.23;;;9.10;99.90;;;9.44;71.48;100568.22;5072157;28;20049;-85
2021/05/06 05:40:47;;;;;;;9.38;8.48;;;9.20;99.90;;;9.51;71.83;100564.66;5073081;28;20048;-86
2021/05/06 05:43:29;;;;;;;9.90;8.25;;;9.30;99.90;;;9.70;72.03;100568.97;5074374;28;20036;-86
2021/05/06 05:57:06;;;;;;;12.23;10.93;;;10.00;99.90;;;10.34;72.22;100576.47;5073377;28;20048;-88
2021/05/06 05:59:33;;;;;;;13.85;11.00;;;10.10;99.90;;;10.32;71.84;100575.59;5073598;28;20409;-88
2021/05/06 06:02:01;;;;;;;13.88;11.90;;;10.10;99.90;;;10.36;72.25;100565.00;5072963;28;20554;-88
2021/05/06 06:04:28;;;;;;;14.18;12.80;;;10.10;99.90;;;10.54;72.28;100574.53;5072642;28;20044;-86
2021/05/06 06:06:56;;;;;;;16.35;13.10;;;10.20;99.90;;;10.56;72.27;100575.41;5072707;28;20072;-89
2021/05/06 06:09:23;;;;;;;16.15;12.82;;;10.30;99.90;;;10.43;72.64;100550.81;5072734;28;20052;-89
2021/05/06 06:11:51;;;;;;;14.77;13.30;;;10.30;99.90;;;10.73;72.12;100574.34;5071307;28;20497;-89
2021/05/06 06:14:23;;;;;;;17.40;13.13;;;10.40;99.90;;;10.85;72.11;100576.00;5072531;28;20037;-88
2021/05/06 06:16:50;;;;;;;15.57;13.35;;;10.50;99.90;;;10.94;72.30;100575.88;5075049;28;20067;-86
2021/05/06 06:19:23;;;;;;;17.25;14.15;;;10.60;99.90;;;11.05;72.16;100574.03;5076899;28;20036;-87
2021/05/06 06:21:52;;;;;;;18.00;13.68;;;10.70;99.90;;;11.15;71.50;100572.16;5076792;28;20052;-85
2021/05/06 06:24:20;;;;;;;16.00;13.90;;;10.80;99.90;;;11.21;71.52;100587.94;5076519;28;20067;-87
2021/05/06 06:26:47;;;;;;;16.30;14.23;;;10.90;99.90;;;11.36;71.50;100578.03;5076278;28;20226;-86
2021/05/06 06:29:17;;;;;;;21.52;14.75;;;11.00;99.90;;;11.36;70.72;100569.25;5076260;28;20048;-87
2021/05/06 06:31:47;;;;;;;17.15;15.27;;;11.10;99.90;;;11.45;70.91;100585.00;5076517;28;20082;-87
2021/05/06 06:34:15;;;;;;;16.58;13.65;;;11.20;99.90;;;11.34;70.42;100581.63;5076503;28;20048;-87
2021/05/06 06:36:44;;;;;;;19.02;15.13;;;11.20;99.90;;;11.61;70.44;100582.13;5091658;28;20152;-86
2021/05/06 06:39:14;;;;;;;21.52;15.18;;;11.30;99.90;;;11.74;70.46;100575.81;5076022;28;20064;-85
2021/05/06 06:41:42;;;;;;;17.90;15.57;;;11.40;99.90;;;11.82;69.71;100575.72;5075888;28;20820;-87
2021/05/06 06:44:09;;;;;;;21.88;17.27;;;11.50;99.90;;;11.94;70.37;100579.94;5074919;28;20559;-87
2021/05/06 06:46:37;;;;;;;18.05;16.15;;;11.70;99.90;;;11.83;69.75;100558.03;5076252;28;20056;-88
2021/05/06 06:49:05;;;;;;;16.13;14.52;;;11.70;99.90;;;12.00;69.43;100578.06;5076787;28;20086;-87
2021/05/06 06:51:33;;;;;;;19.45;16.73;;;11.70;99.90;;;11.89;69.62;100579.13;5076304;28;20091;-85
2021/05/06 06:54:01;;;;;;;21.73;18.30;;;11.70;99.90;;;11.84;69.76;100555.38;5076394;28;20067;-88
2021/05/06 06:56:29;;;;;;;18.48;16.35;;;11.70;99.90;;;12.04;69.73;100574.47;5076093;28;20118;-87
2021/05/06 06:58:56;;;;;;;17.67;15.88;;;11.80;99.90;;;12.19;69.20;100576.03;5076359;28;20049;-87
2021/05/06 07:01:27;;;;;;;18.95;15.95;;;11.90;99.90;;;12.24;68.54;100575.06;5075870;28;20485;-88
2021/05/06 07:03:54;;;;;;;20.60;16.70;;;12.00;99.90;;;12.22;67.92;100565.38;5076038;28;20576;-85
2021/05/06 07:06:22;;;;;;;18.33;15.95;;;12.00;99.90;;;12.30;68.28;100571.44;5076239;28;20076;-88
2021/05/06 07:08:50;;;;;;;19.17;16.42;;;12.00;99.90;;;12.24;67.70;100558.25;5076246;28;20117;-86
2021/05/06 07:11:18;;;;;;;17.02;15.23;;;12.10;99.90;;;12.35;67.06;100572.25;5075151;28;20048;-88
2021/05/06 07:13:45;;;;;;;17.25;14.82;;;12.10;99.90;;;12.39;65.95;100573.91;5076628;28;20044;-86
2021/05/06 07:16:13;;;;;;;17.55;15.30;;;12.10;99.90;;;12.44;65.83;100572.97;5076776;28;20048;-88
2021/05/06 07:18:41;;;;;;;18.27;16.23;;;12.20;99.90;;;12.34;65.14;100573.13;5076632;28;20045;-87
2021/05/06 07:21:09;;;;;;;17.08;14.88;;;12.10;99.90;;;12.26;65.70;100573.25;5076882;28;20094;-89
2021/05/06 07:23:37;;;;;;;19.52;16.08;;;12.00;99.90;;;12.25;66.45;100565.34;5078367;28;20052;-87
2021/05/06 07:26:08;;;;;;;19.45;17.13;;;12.00;99.90;;;12.29;66.64;100569.69;5086141;28;20055;-88
2021/05/06 07:28:39;;;;;;;16.90;14.48;;;12.10;99.90;;;12.24;64.92;100564.44;5093221;28;20040;-88
2021/05/06 07:31:12;;;;;;;19.75;16.98;;;12.10;99.90;;;12.40;64.64;100565.97;5075527;28;20044;-86
2021/05/06 07:33:44;;;;;;;16.23;14.48;;;12.10;99.90;;;12.35;63.99;100564.28;5075229;28;20074;-73
2021/05/06 07:36:19;;;;;;;137.55;77.75;;;12.10;99.90;;;12.18;64.33;100542.44;5073693;28;20436;-70
2021/05/06 07:38:54;;;;;;;17.23;13.98;;;12.00;99.90;;;12.39;63.45;100573.91;5069953;28;20406;-71
2021/05/06 07:41:24;;;;;;;39.10;24.38;;;12.10;99.90;;;12.53;62.90;100569.25;5054881;28;20037;-72
2021/05/06 07:43:55;;;;;;;21.35;16.63;;;12.20;99.90;;;12.68;62.80;100561.03;5054791;28;20113;-71
2021/05/06 07:46:26;;;;;;;21.88;18.45;;;12.40;99.90;;;12.73;63.91;100564.50;5054624;28;20045;-71
2021/05/06 07:48:57;;;;;;;23.73;17.73;;;12.40;99.90;;;12.57;64.00;100557.69;5054641;28;20079;-73
2021/05/06 07:51:29;;;;;;;23.63;18.63;;;12.40;99.90;;;12.54;64.35;100532.09;5054644;28;20055;-71
2021/05/06 07:54:06;;;;;;;20.98;16.25;;;12.30;99.90;;;12.52;63.13;100555.13;5054474;28;20449;-69
2021/05/06 07:56:41;;;;;;;21.58;15.55;;;12.30;99.90;;;12.55;62.88;100546.22;5054243;28;20049;-70
2021/05/06 07:59:08;;;;;;;24.48;16.40;;;12.30;99.90;;;12.42;62.16;100528.78;5054359;28;20071;-71
2021/05/06 08:01:36;;;;;;;19.90;15.07;;;12.20;99.90;;;12.52;61.65;100546.31;5086868;28;20421;-70
2021/05/06 08:04:04;;;;;;;21.30;16.40;;;12.20;99.90;;;12.36;62.12;100547.47;5054373;28;20088;-70
2021/05/06 08:06:32;;;;;;;19.17;17.08;;;12.20;99.90;;;12.33;62.79;100540.41;5054217;28;20531;-70
2021/05/06 08:09:00;;;;;;;16.77;14.85;;;12.00;99.90;;;12.31;62.38;100544.03;5052961;28;20098;-70
2021/05/06 08:11:28;;;;;;;16.60;13.07;;;12.00;99.90;;;12.18;61.18;100521.22;5054083;28;20120;-70
2021/05/06 08:13:56;;;;;;;14.68;12.07;;;11.90;99.90;;;12.23;59.74;100536.16;5054111;28;20041;-66
2021/05/06 08:16:24;;;;;;;19.60;14.18;;;11.90;99.90;;;12.40;59.70;100534.13;5054167;28;20041;-65
2021/05/06 08:18:51;;;;;;;19.20;14.07;;;12.10;99.90;;;12.51;60.12;100532.16;5054145;28;20129;-66
2021/05/06 08:21:19;;;;;;;16.17;14.48;;;12.20;99.90;;;12.63;60.02;100534.59;5054069;28;20055;-65
2021/05/06 08:23:46;;;;;;;16.08;14.38;;;12.30;99.90;;;12.80;60.84;100528.97;5053839;28;20577;-65
2021/05/06 08:26:15;;;;;;;18.40;13.88;;;12.50;99.90;;;12.93;60.88;100526.97;5069097;28;20065;-65
2021/05/06 08:28:50;;;;;;;19.88;16.50;;;12.60;99.90;;;13.08;60.97;100527.56;5053819;28;20049;-65
2021/05/06 08:31:18;;;;;;;20.17;16.00;;;12.80;99.90;;;13.09;60.49;100534.63;5053637;28;20047;-65
2021/05/06 08:33:45;;;;;;;23.83;17.92;;;12.90;99.90;;;13.29;60.35;100536.88;5053668;28;20044;-65
2021/05/06 08:36:13;;;;;;;20.40;17.00;;;13.00;99.90;;;13.14;59.92;100530.06;5053774;28;20041;-65
2021/05/06 08:38:40;;;;;;;21.65;17.63;;;13.00;99.90;;;12.81;60.92;100544.00;5052609;28;20049;-65
2021/05/06 08:41:08;;;;;;;20.60;16.52;;;12.70;99.90;;;12.73;61.21;100532.66;5053673;28;20053;-66
2021/05/06 08:43:39;;;;;;;20.42;16.55;;;12.60;99.90;;;12.79;61.01;100532.53;5053607;28;20071;-66
2021/05/06 08:46:06;;;;;;;18.30;15.20;;;12.50;99.90;;;12.81;60.96;100536.03;5068905;28;20501;-66
2021/05/06 08:48:54;;;;;;;18.90;15.50;;;12.50;99.90;;;12.82;61.50;100520.97;5068762;28;20048;-65
2021/05/06 08:51:23;;;;;;;15.80;13.95;;;12.60;99.90;;;12.84;60.55;100530.66;5053598;28;20059;-65
2021/05/06 08:53:51;;;;;;;16.80;13.93;;;12.60;99.90;;;12.76;59.69;100532.56;5068818;28;20498;-66
2021/05/06 08:56:19;;;;;;;14.48;13.00;;;12.50;99.90;;;12.72;59.24;100535.34;5053140;28;20079;-65
2021/05/06 08:58:47;;;;;;;14.88;13.27;;;12.40;99.90;;;12.77;59.67;100533.47;5052076;28;20064;-66
2021/05/06 09:01:17;;;;;;;72.70;48.78;;;12.50;99.90;;;12.71;60.06;100529.16;5053241;28;20475;-66
2021/05/06 09:03:45;;;;;;;107.80;62.58;;;12.40;99.90;;;12.56;60.35;100527.63;5053124;28;20135;-65
2021/05/06 09:06:17;;;;;;;56.55;41.13;;;12.30;99.90;;;12.57;60.13;100523.22;5053247;28;20414;-66
2021/05/06 09:08:46;;;;;;;271.55;151.43;;;12.30;99.90;;;12.54;60.38;100520.63;5053082;28;20048;-69
2021/05/06 09:11:14;;;;;;;20.55;15.38;;;12.20;99.90;;;12.46;59.92;100527.84;5052997;28;20398;-65
2021/05/06 09:13:42;;;;;;;33.83;13.82;;;12.20;99.90;;;12.36;60.49;100528.91;5052917;28;20044;-69
2021/05/06 09:16:10;;;;;;;16.73;12.98;;;12.20;99.90;;;12.17;60.56;100540.72;5084977;28;20048;-74
2021/05/06 09:18:41;;;;;;;16.63;12.45;;;12.00;99.90;;;12.27;61.50;100537.88;5052889;28;20041;-73
2021/05/06 09:21:11;;;;;;;;;;;12.00;99.90;;;12.25;61.13;100537.00;5053447;28;20052;-69
2021/05/06 09:23:43;;;;;;;12.80;11.45;;;12.00;99.90;;;12.16;60.62;100537.19;5052719;28;19920;-71
2021/05/06 09:26:11;;;;;;;14.75;11.30;;;11.90;99.90;;;12.12;60.06;100534.59;5068267;28;20045;-72
2021/05/06 09:28:38;;;;;;;16.77;12.55;;;11.90;99.90;;;12.15;60.98;100529.25;5052605;28;20044;-72
2021/05/06 09:31:08;;;;;;;13.07;9.93;;;11.90;99.90;;;12.24;60.46;100531.75;5052656;28;20041;-71
2021/05/06 09:33:38;;;;;;;8.65;7.53;;;12.00;99.90;;;12.41;56.27;100524.38;5052851;28;20080;-70
2021/05/06 09:36:13;;;;;;;11.10;8.23;;;12.20;99.90;;;12.66;55.22;100531.88;5052761;28;20069;-71
2021/05/06 09:38:43;;;;;;;9.77;8.02;;;12.40;99.90;;;12.70;53.48;100524.72;5052523;28;20127;-70
2021/05/06 09:41:13;;;;;;;13.45;7.90;;;12.50;99.90;;;12.72;52.53;100528.22;5052397;28;20049;-70
2021/05/06 09:43:42;;;;;;;10.47;8.63;;;12.50;99.90;;;12.71;54.09;100518.53;5051118;28;20045;-71
2021/05/06 09:46:32;;;;;;;9.52;7.65;;;12.50;99.90;;;12.84;52.89;100525.34;5052256;28;20053;-69
2021/05/06 09:49:04;;;;;;;10.68;6.90;;;12.60;99.90;;;12.96;50.13;100530.44;5052580;28;20037;-69
2021/05/06 09:51:38;;;;;;;8.63;7.72;;;12.70;99.90;;;13.13;50.57;100525.69;5052157;28;20490;-70
2021/05/06 09:54:09;;;;;;;11.02;7.65;;;12.90;99.90;;;13.24;49.58;100518.38;5052431;28;20056;-70
2021/05/06 09:56:38;;;;;;;14.35;7.93;;;13.10;99.90;;;13.49;49.73;100524.91;5052229;28;20049;-69
2021/05/06 09:59:06;;;;;;;9.05;6.40;;;13.20;99.90;;;13.54;47.67;100519.50;5052421;28;20059;-69
2021/05/06 10:01:37;;;;;;;8.88;6.15;;;13.40;99.90;;;13.71;46.92;100505.81;5052420;28;20051;-68
2021/05/06 10:04:19;;;;;;;;;;;13.50;99.90;;;14.00;45.57;100511.31;5052698;28;20075;-66
2021/05/06 10:07:10;;;;;;;8.63;5.63;;;13.70;99.90;;;14.19;43.78;100524.13;5052347;28;19931;-68
2021/05/06 10:09:54;;;;;;;8.20;6.18;;;13.90;99.90;;;14.29;44.09;100538.13;5052297;28;20067;-69
2021/05/06 10:12:25;;;;;;;9.20;6.25;;;14.00;99.90;;;14.57;44.40;100523.22;5051966;28;20053;-71
2021/05/06 10:14:53;;;;;;;9.35;6.07;;;14.20;99.90;;;14.50;44.61;100516.28;5052229;28;20059;-72
2021/05/06 10:17:22;;;;;;;60.13;31.60;;;14.30;99.90;;;14.38;45.97;100482.03;5051916;28;20136;-73
2021/05/06 10:19:52;;;;;;;126.88;70.85;;;14.30;99.90;;;14.68;45.45;100510.50;5084378;28;20053;-78
2021/05/06 10:22:23;;;;;;;13.35;9.90;;;14.40;99.90;;;14.79;44.61;100507.56;5050867;28;20051;-79
2021/05/06 10:24:57;;;;;;;7.85;6.80;;;14.50;99.90;;;14.79;43.51;100508.41;5052713;28;20122;-77
2021/05/06 10:27:26;;;;;;;6.70;5.78;;;14.60;99.90;;;14.92;45.89;100504.50;5052205;28;20045;-79
2021/05/06 10:29:57;;;;;;;7.85;6.45;;;14.60;99.90;;;15.10;44.93;100505.75;5050919;28;20052;-79
2021/05/06 10:32:27;;;;;;;6.25;5.45;;;14.80;99.90;;;15.12;42.63;100491.47;5052234;28;20049;-78
2021/05/06 10:34:57;;;;;;;9.35;6.15;;;14.90;99.90;;;15.37;43.88;100505.81;5051994;28;20045;-77
2021/05/06 10:37:27;;;;;;;6.72;5.50;;;15.10;99.90;;;15.20;42.18;100483.25;5051974;28;20049;-77
2021/05/06 10:39:56;;;;;;;7.35;5.60;;;15.10;99.90;;;15.34;43.41;100508.59;5052038;28;20041;-79
2021/05/06 10:42:35;;;;;;;7.85;4.85;;;15.00;99.90;;;15.08;43.68;100508.47;5052040;28;20041;-78
2021/05/06 10:45:31;;;;;;;5.10;4.22;;;14.80;99.90;;;14.64;40.12;100507.94;5051956;28;20086;-80
2021/05/06 10:47:59;;;;;;;5.88;4.50;;;14.40;99.90;;;14.41;41.66;100500.56;5067430;28;20071;-81
2021/05/06 10:50:36;;;;;;;6.68;4.53;;;14.20;99.90;;;14.22;42.07;100499.25;5052149;28;20072;-81
2021/05/06 10:53:06;;;;;;;5.47;4.85;;;14.00;99.90;;;14.00;42.69;100485.63;5052298;28;20045;-76
2021/05/06 10:55:48;;;;;;;6.15;4.32;;;13.80;99.90;;;13.82;42.97;100504.66;5051539;28;20053;-77
2021/05/06 10:58:39;;;;;;;10.00;5.05;;;13.50;99.90;;;13.64;44.08;100486.50;5051938;28;20391;-79
2021/05/06 11:01:23;;;;;;;6.88;4.72;;;13.40;99.90;;;13.51;45.51;100498.31;5051029;28;20068;-77
2021/05/06 11:04:10;;;;;;;9.50;6.75;;;13.20;99.90;;;13.03;52.18;100497.56;5069562;28;20056;-77
2021/05/06 11:06:45;;;;;;;10.85;7.40;;;12.80;99.90;;;12.89;53.14;100499.56;5055350;28;20045;-77
2021/05/06 11:09:57;;;;;;;7.47;6.55;;;12.60;99.90;;;12.82;54.54;100492.66;5055457;28;20049;-76
2021/05/06 11:12:31;;;;;;;9.35;6.75;;;12.50;99.90;;;12.17;55.83;100501.81;5055272;28;20067;-76
2021/05/06 11:15:25;;;;;;;10.88;7.15;;;12.20;99.90;;;11.52;58.06;100501.91;5054970;28;20049;-76
2021/05/06 11:17:53;;;;;;;10.13;7.53;;;11.50;99.90;;;11.42;58.60;100513.56;5055351;28;20053;-76
2021/05/06 11:20:55;;;;;;;8.73;7.40;;;11.30;99.90;;;11.17;58.76;100502.38;5055349;28;20041;-76
2021/05/06 11:23:33;;;;;;;18.52;6.68;;;11.10;99.90;;;11.23;55.77;100502.31;5054894;28;20064;-76
2021/05/06 11:26:16;;;;;;;7.68;6.03;;;11.10;99.90;;;11.09;56.12;100491.00;5055701;28;20059;-76
2021/05/06 11:28:49;;;;;;;8.10;5.80;;;11.00;99.90;;;10.86;56.76;100482.47;5055210;28;20040;-77
2021/05/06 11:31:46;;;;;;;10.70;7.03;;;10.90;99.90;;;10.97;58.24;100480.59;5055186;28;20045;-76
2021/05/06 11:34:38;;;;;;;10.95;7.13;;;10.80;99.90;;;11.20;59.13;100461.78;5055043;28;20041;-76
2021/05/06 11:37:16;;;;;;;9.20;7.13;;;11.10;99.90;;;11.25;58.50;100495.22;5054947;28;20183;-76
2021/05/06 11:39:58;;;;;;;10.55;7.13;;;11.20;99.90;;;11.70;57.69;100470.78;5053653;28;20472;-76
2021/05/06 11:42:29;;;;;;;11.00;7.50;;;11.50;99.90;;;11.68;58.58;100477.88;5053928;28;20049;-77
2021/05/06 11:45:20;;;;;;;7.50;6.63;;;11.60;99.90;;;11.78;55.64;100452.13;5055066;28;20067;-77
2021/05/06 11:47:49;;;;;;;6.93;5.82;;;11.70;99.90;;;12.03;55.32;100465.81;5054762;28;20452;-77
2021/05/06 11:50:31;;;;;;;10.10;6.28;;;11.90;99.90;;;12.21;55.67;100462.88;5054618;28;20128;-77
2021/05/06 11:53:01;;;;;;;10.38;6.60;;;12.00;99.90;;;12.32;55.15;100461.78;5054515;28;20056;-77
2021/05/06 11:55:40;;;;;;;8.57;6.95;;;12.10;99.90;;;12.52;54.16;100459.59;5054123;28;20076;-77
2021/05/06 11:58:09;;;;;;;7.00;6.28;;;12.30;99.90;;;12.56;54.63;100482.53;5054216;28;20110;-77
2021/05/06 12:00:39;;;;;;;8.80;6.78;;;12.40;99.90;;;12.76;55.94;100462.69;5053138;28;20076;-77
2021/05/06 12:03:09;;;;;;;11.88;6.30;;;12.60;99.90;;;12.84;53.99;100450.16;5054422;28;20052;-78
2021/05/06 12:05:58;;;;;;;7.57;6.78;;;12.60;99.90;;;12.96;52.57;100452.56;5054901;28;20812;-78
2021/05/06 12:08:28;;;;;;;8.80;6.20;;;12.80;99.90;;;13.11;51.09;100463.75;5054414;28;20091;-78
2021/05/06 12:10:59;;;;;;;7.53;6.78;;;12.90;99.90;;;13.35;50.17;100457.06;5054325;28;20098;-78
2021/05/06 12:13:31;;;;;;;6.72;6.10;;;13.10;99.90;;;13.50;49.93;100452.28;5052961;28;20052;-77
2021/05/06 12:16:18;;;;;;;10.05;6.65;;;13.30;99.90;;;13.79;49.98;100453.34;5054605;28;20048;-78
2021/05/06 12:19:01;;;;;;;10.05;6.28;;;13.50;99.90;;;13.72;49.62;100439.34;5054453;28;20045;-77
2021/05/06 12:21:32;;;;;;;10.75;5.90;;;13.60;99.90;;;13.64;50.64;100451.94;5054057;28;20379;-77
2021/05/06 12:24:00;;;;;;;10.63;6.28;;;13.50;99.90;;;13.31;49.88;100442.97;5054246;28;20490;-77
2021/05/06 12:26:29;;;;;;;10.43;6.07;;;13.20;99.90;;;13.11;50.58;100428.38;5054121;28;20041;-77
2021/05/06 12:28:57;;;;;;;11.13;7.10;;;13.00;99.90;;;13.42;51.27;100435.63;5054114;28;20053;-77
2021/05/06 12:31:26;;;;;;;7.65;6.85;;;13.10;99.90;;;13.50;50.42;100415.06;5053909;28;20064;-77
2021/05/06 12:33:54;;;;;;;9.80;6.55;;;13.30;99.90;;;13.74;49.87;100432.22;5053903;28;20120;-77
2021/05/06 12:36:22;;;;;;;9.63;6.80;;;13.50;99.90;;;13.81;49.73;100423.19;5053588;28;20486;-77
2021/05/06 12:38:50;;;;;;;12.43;7.13;;;13.70;99.90;;;13.06;49.97;100311.66;5052608;28;20049;-77
2021/05/06 12:41:18;;;;;;;11.70;6.63;;;13.60;99.90;;;13.84;49.59;100416.91;5053728;28;20075;-77
2021/05/06 12:43:52;;;;;;;12.52;7.18;;;13.70;99.90;;;13.57;49.93;100414.00;5053914;28;20443;-77
2021/05/06 12:46:25;;;;;;;10.20;6.93;;;13.50;99.90;;;13.68;49.36;100420.84;5053659;28;20052;-77
2021/05/06 12:48:56;;;;;;;8.82;6.53;;;13.60;99.90;;;13.79;50.35;100413.47;5052183;28;20095;-77
2021/05/06 12:51:29;;;;;;;;;;;13.60;99.90;;;13.76;49.40;100418.88;5054196;28;20049;-77
2021/05/06 12:54:05;;;;;;;10.00;7.35;;;13.70;99.90;;;13.42;49.41;100424.13;5068943;28;19958;-77
2021/05/06 12:56:36;;;;;;;9.25;6.90;;;13.50;99.90;;;13.63;49.69;100412.13;5051990;28;20524;-77